Time;durP1;ratioP1;P1;durP2;ratioP2;P2;SDS_P1;SDS_P2;PMS_P1;PMS_P2;Temp;Humidity;BMP_temperature;BMP_pressure;BME280_temperature;BME280_humidity;BME280_pressure;Samples;Min_cycle;Max_cycle;Signal;HPM_P1;HPM_P2
2023/09/05 00:00:26;;;;;;;;;;;22.50;43.60;;;;;;1538396;75;1152;-52
2023/09/05 00:02:26;;;;;;;;;;;22.40;43.50;;;;;;1539553;75;1585;-53
2023/09/05 00:04:28;;;;;;;;;;;22.40;43.50;;;;;;1537499;75;1415;-55
2023/09/05 00:06:31;;;;;;;;;;;22.50;43.70;;;;;;1541961;75;776;-52
2023/09/05 00:08:32;;;;;;;;;;;22.40;43.60;;;;;;1542558;75;861;-55
2023/09/05 00:10:34;;;;;;;;;;;22.50;43.70;;;;;;1544540;75;1119;-54
2023/09/05 00:12:40;;;;;;;;;;;22.40;43.50;;;;;;1541958;75;667;-55
2023/09/05 00:14:40;;;;;;;;;;;22.50;43.70;;;;;;1537653;75;1400;-54
2023/09/05 00:16:42;;;;;;;;;;;22.50;43.80;;;;;;1540221;75;762;-51
2023/09/05 00:18:44;;;;;;;;;;;22.50;43.80;;;;;;1531631;75;1929;-56
2023/09/05 00:20:46;;;;;;;;;;;22.50;43.80;;;;;;1529325;75;1176;-52
2023/09/05 00:22:48;;;;;;;;;;;22.40;43.70;;;;;;1540656;75;612;-54
2023/09/05 00:24:50;;;;;;;;;;;22.50;43.80;;;;;;1543349;75;729;-54
2023/09/05 00:26:52;;;;;;;;;;;22.50;43.90;;;;;;1542420;75;717;-52
2023/09/05 00:28:54;;;;;;;;;;;22.50;43.90;;;;;;1541041;75;726;-54
2023/09/05 00:30:57;;;;;;;;;;;22.40;43.80;;;;;;1539794;75;1146;-54
2023/09/05 00:32:59;;;;;;;;;;;22.50;43.90;;;;;;1542702;75;1290;-54
2023/09/05 00:35:01;;;;;;;;;;;22.40;43.90;;;;;;1540602;75;744;-55
2023/09/05 00:37:03;;;;;;;;;;;22.40;43.70;;;;;;1546474;75;675;-55
2023/09/05 00:39:05;;;;;;;;;;;22.50;44.00;;;;;;1535800;75;1943;-52
2023/09/05 00:43:19;;;;;;;;;;;22.50;44.00;;;;;;1543509;73;225097;-64
2023/09/05 00:45:22;;;;;;;;;;;22.40;43.90;;;;;;1565204;74;749;-65
2023/09/05 00:47:27;;;;;;;;;;;22.50;44.10;;;;;;1571939;74;1389;-64
2023/09/05 00:49:27;;;;;;;;;;;22.40;43.90;;;;;;1558878;74;1519;-64
2023/09/05 00:51:34;;;;;;;;;;;22.50;44.10;;;;;;1567722;74;787;-63
2023/09/05 00:53:33;;;;;;;;;;;22.50;44.10;;;;;;1548334;75;1247;-64
2023/09/05 00:55:54;;;;;;;;;;;22.40;44.00;;;;;;1549190;71;225556;-50
2023/09/05 00:58:00;;;;;;;;;;;22.50;44.20;;;;;;1549588;75;667;-54
2023/09/05 01:00:00;;;;;;;;;;;22.50;44.20;;;;;;1549474;75;1935;-53
2023/09/05 01:02:02;;;;;;;;;;;22.50;44.20;;;;;;1537982;75;1441;-52
2023/09/05 01:04:04;;;;;;;;;;;22.50;44.20;;;;;;1542979;75;733;-52
2023/09/05 01:06:07;;;;;;;;;;;22.40;44.20;;;;;;1541221;75;681;-55
2023/09/05 01:08:21;;;;;;;;;;;22.40;44.20;;;;;;1553394;75;690;-56
2023/09/05 01:10:24;;;;;;;;;;;22.50;44.30;;;;;;1543694;75;1166;-55
2023/09/05 01:12:26;;;;;;;;;;;22.40;44.20;;;;;;1548398;75;749;-56
2023/09/05 01:14:28;;;;;;;;;;;22.40;44.30;;;;;;1560051;75;724;-55
2023/09/05 01:16:30;;;;;;;;;;;22.40;44.20;;;;;;1543613;75;1403;-55
2023/09/05 01:18:39;;;;;;;;;;;22.40;44.30;;;;;;1546614;75;1953;-55
2023/09/05 01:20:37;;;;;;;;;;;22.40;44.30;;;;;;1547636;75;1589;-54
2023/09/05 01:22:50;;;;;;;;;;;22.40;44.40;;;;;;1555337;75;1024;-55
2023/09/05 01:24:52;;;;;;;;;;;22.40;44.40;;;;;;1539223;75;943;-55
2023/09/05 01:26:54;;;;;;;;;;;22.40;44.30;;;;;;1551285;75;729;-55
2023/09/05 01:28:56;;;;;;;;;;;22.40;44.30;;;;;;1558230;75;1396;-54
2023/09/05 01:30:58;;;;;;;;;;;22.40;44.40;;;;;;1543608;75;1204;-54
2023/09/05 01:33:00;;;;;;;;;;;22.30;44.30;;;;;;1542516;75;675;-54
2023/09/05 01:35:02;;;;;;;;;;;22.30;44.20;;;;;;1549232;75;736;-55
2023/09/05 01:37:04;;;;;;;;;;;22.30;44.30;;;;;;1543997;75;687;-55
2023/09/05 01:39:06;;;;;;;;;;;22.30;44.40;;;;;;1545163;75;1926;-56
2023/09/05 01:41:07;;;;;;;;;;;22.30;44.40;;;;;;1546638;75;1142;-55
2023/09/05 01:43:09;;;;;;;;;;;22.30;44.50;;;;;;1544684;75;1409;-54
2023/09/05 01:45:11;;;;;;;;;;;22.30;44.50;;;;;;1548701;75;728;-54
2023/09/05 01:47:13;;;;;;;;;;;22.30;44.50;;;;;;1550174;75;770;-53
2023/09/05 01:49:15;;;;;;;;;;;22.30;44.50;;;;;;1543907;75;761;-55
2023/09/05 01:51:17;;;;;;;;;;;22.30;44.60;;;;;;1543975;75;1205;-53
2023/09/05 01:53:19;;;;;;;;;;;22.30;44.60;;;;;;1545814;75;701;-54
2023/09/05 01:55:21;;;;;;;;;;;22.30;44.50;;;;;;1551191;75;723;-54
2023/09/05 01:57:22;;;;;;;;;;;22.30;44.50;;;;;;1543085;75;1420;-54
2023/09/05 01:59:24;;;;;;;;;;;22.30;44.70;;;;;;1548970;75;1959;-54
2023/09/05 02:01:27;;;;;;;;;;;22.30;44.70;;;;;;1546934;75;620;-54
2023/09/05 02:03:29;;;;;;;;;;;22.30;44.70;;;;;;1543198;75;718;-53
2023/09/05 02:05:31;;;;;;;;;;;22.30;44.70;;;;;;1547324;75;659;-56
2023/09/05 02:07:33;;;;;;;;;;;22.30;44.70;;;;;;1541315;75;778;-55
2023/09/05 02:09:35;;;;;;;;;;;22.30;44.70;;;;;;1543854;75;1138;-54
2023/09/05 02:11:37;;;;;;;;;;;22.30;44.70;;;;;;1546823;75;1228;-55
2023/09/05 02:13:39;;;;;;;;;;;22.30;44.70;;;;;;1547524;75;630;-55
2023/09/05 02:15:42;;;;;;;;;;;22.30;44.80;;;;;;1544421;75;696;-54
2023/09/05 02:17:44;;;;;;;;;;;22.30;44.90;;;;;;1544353;75;786;-53
2023/09/05 02:19:46;;;;;;;;;;;22.20;44.70;;;;;;1550093;75;1960;-54
2023/09/05 02:21:49;;;;;;;;;;;22.20;44.70;;;;;;1542140;75;724;-54
2023/09/05 02:23:51;;;;;;;;;;;22.20;44.70;;;;;;1539384;75;734;-54
2023/09/05 02:25:57;;;;;;;;;;;22.30;45.00;;;;;;1538304;75;1465;-54
2023/09/05 02:27:59;;;;;;;;;;;22.30;44.90;;;;;;1563719;75;1006;-55
2023/09/05 02:30:04;;;;;;;;;;;22.30;44.90;;;;;;1546815;75;1107;-55
2023/09/05 02:32:05;;;;;;;;;;;22.30;44.80;;;;;;1553171;75;1746;-54
2023/09/05 02:34:07;;;;;;;;;;;22.30;44.80;;;;;;1544651;75;619;-55
2023/09/05 02:36:09;;;;;;;;;;;22.30;44.80;;;;;;1546491;75;702;-53
2023/09/05 02:38:13;;;;;;;;;;;22.30;44.90;;;;;;1546328;75;736;-56
2023/09/05 02:40:14;;;;;;;;;;;22.30;44.90;;;;;;1544890;75;1939;-53
2023/09/05 02:42:16;;;;;;;;;;;22.30;44.90;;;;;;1546173;75;693;-54
2023/09/05 02:44:18;;;;;;;;;;;22.30;44.90;;;;;;1542664;75;1099;-55
2023/09/05 02:46:21;;;;;;;;;;;22.30;45.70;;;;;;1544695;75;736;-55
2023/09/05 02:48:23;;;;;;;;;;;22.40;46.00;;;;;;1548840;75;752;-55
2023/09/05 02:50:24;;;;;;;;;;;22.40;46.00;;;;;;1548800;75;1194;-54
2023/09/05 02:52:27;;;;;;;;;;;22.30;45.70;;;;;;1548691;75;792;-55
2023/09/05 02:54:29;;;;;;;;;;;22.40;45.60;;;;;;1549177;75;1575;-53
2023/09/05 02:56:30;;;;;;;;;;;22.40;45.60;;;;;;1543633;75;726;-53
2023/09/05 02:58:32;;;;;;;;;;;22.40;45.50;;;;;;1549668;75;749;-55
2023/09/05 03:00:35;;;;;;;;;;;22.40;45.40;;;;;;1551074;75;1957;-55
2023/09/05 03:02:40;;;;;;;;;;;22.40;45.40;;;;;;1549601;75;815;-53
2023/09/05 03:04:41;;;;;;;;;;;22.30;45.50;;;;;;1551976;75;1614;-54
2023/09/05 03:06:43;;;;;;;;;;;22.40;45.20;;;;;;1553449;75;675;-53
2023/09/05 03:08:46;;;;;;;;;;;22.40;45.30;;;;;;1550063;75;1343;-53
2023/09/05 03:10:49;;;;;;;;;;;22.40;45.30;;;;;;1548846;75;1134;-53
2023/09/05 03:12:51;;;;;;;;;;;22.40;45.30;;;;;;1547073;75;681;-53
2023/09/05 03:14:53;;;;;;;;;;;22.30;45.30;;;;;;1553163;75;713;-53
2023/09/05 03:16:55;;;;;;;;;;;22.30;45.30;;;;;;1549702;75;770;-53
2023/09/05 03:18:59;;;;;;;;;;;22.30;45.30;;;;;;1537168;75;1943;-53
2023/09/05 03:21:01;;;;;;;;;;;22.30;45.30;;;;;;1549572;75;1133;-53
2023/09/05 03:23:03;;;;;;;;;;;22.30;45.30;;;;;;1551756;75;1427;-55
2023/09/05 03:25:06;;;;;;;;;;;22.20;45.20;;;;;;1546129;75;785;-53
2023/09/05 03:27:08;;;;;;;;;;;22.30;45.30;;;;;;1540430;75;770;-55
2023/09/05 03:29:10;;;;;;;;;;;22.30;45.20;;;;;;1546174;75;679;-54
2023/09/05 03:31:12;;;;;;;;;;;22.30;45.30;;;;;;1543334;75;1181;-54
2023/09/05 03:33:14;;;;;;;;;;;22.20;45.20;;;;;;1546363;75;733;-54
2023/09/05 03:35:16;;;;;;;;;;;22.30;45.40;;;;;;1549401;75;1492;-53
2023/09/05 03:37:18;;;;;;;;;;;22.30;45.30;;;;;;1550066;75;696;-54
2023/09/05 03:39:20;;;;;;;;;;;22.30;45.30;;;;;;1544760;75;1939;-53
2023/09/05 03:41:22;;;;;;;;;;;22.30;45.30;;;;;;1539254;75;1197;-53
2023/09/05 03:43:23;;;;;;;;;;;22.30;45.30;;;;;;1550140;75;748;-54
2023/09/05 03:45:27;;;;;;;;;;;22.30;45.40;;;;;;1548449;75;726;-54
2023/09/05 03:47:29;;;;;;;;;;;22.30;45.40;;;;;;1550423;75;752;-55
2023/09/05 03:49:31;;;;;;;;;;;22.30;45.40;;;;;;1552808;75;1432;-53
2023/09/05 03:51:32;;;;;;;;;;;22.30;45.40;;;;;;1549469;75;654;-53
2023/09/05 03:53:34;;;;;;;;;;;22.30;45.40;;;;;;1553922;75;766;-54
2023/09/05 03:55:36;;;;;;;;;;;22.20;45.30;;;;;;1548611;75;644;-56
2023/09/05 03:57:38;;;;;;;;;;;22.30;45.40;;;;;;1548151;76;714;-56
2023/09/05 03:59:40;;;;;;;;;;;22.20;45.30;;;;;;1548665;75;1937;-56
2023/09/05 04:01:42;;;;;;;;;;;22.20;45.30;;;;;;1550370;75;715;-57
2023/09/05 04:03:45;;;;;;;;;;;22.30;45.60;;;;;;1545745;75;1427;-55
2023/09/05 04:05:47;;;;;;;;;;;22.30;45.50;;;;;;1552954;75;664;-54
2023/09/05 04:07:49;;;;;;;;;;;22.30;45.50;;;;;;1552102;75;741;-55
2023/09/05 04:09:51;;;;;;;;;;;22.30;45.50;;;;;;1555301;75;1145;-56
2023/09/05 04:11:53;;;;;;;;;;;22.30;45.70;;;;;;1551903;75;636;-55
2023/09/05 04:13:54;;;;;;;;;;;22.30;45.60;;;;;;1546485;75;767;-55
2023/09/05 04:15:58;;;;;;;;;;;22.30;45.50;;;;;;1546633;75;777;-55
2023/09/05 04:18:00;;;;;;;;;;;22.30;45.80;;;;;;1542415;75;1547;-56
2023/09/05 04:20:03;;;;;;;;;;;22.30;46.10;;;;;;1554224;75;1942;-55
2023/09/05 04:22:05;;;;;;;;;;;22.30;46.40;;;;;;1549234;75;709;-56
2023/09/05 04:24:07;;;;;;;;;;;22.20;47.10;;;;;;1557734;75;676;-55
2023/09/05 04:26:09;;;;;;;;;;;22.30;46.80;;;;;;1553265;75;715;-55
2023/09/05 04:28:10;;;;;;;;;;;22.40;46.80;;;;;;1549221;75;632;-55
2023/09/05 04:30:13;;;;;;;;;;;22.40;47.80;;;;;;1549720;75;1126;-55
2023/09/05 04:32:14;;;;;;;;;;;22.40;47.50;;;;;;1547186;75;1457;-55
2023/09/05 04:34:17;;;;;;;;;;;22.40;47.30;;;;;;1549364;75;799;-55
2023/09/05 04:36:18;;;;;;;;;;;22.40;47.20;;;;;;1548338;75;614;-55
2023/09/05 04:38:22;;;;;;;;;;;22.40;47.30;;;;;;1548336;75;723;-55
2023/09/05 04:40:24;;;;;;;;;;;22.40;47.50;;;;;;1547601;75;1941;-55
2023/09/05 04:42:26;;;;;;;;;;;22.40;47.60;;;;;;1548066;75;627;-56
2023/09/05 04:44:27;;;;;;;;;;;22.40;47.40;;;;;;1549890;75;696;-56
2023/09/05 04:46:33;;;;;;;;;;;22.40;47.20;;;;;;1551197;75;1444;-54
2023/09/05 04:48:33;;;;;;;;;;;22.40;48.50;;;;;;1548149;75;1408;-55
2023/09/05 04:50:35;;;;;;;;;;;22.40;47.80;;;;;;1544730;75;1231;-54
2023/09/05 04:52:37;;;;;;;;;;;22.50;48.40;;;;;;1550922;75;659;-56
2023/09/05 04:54:38;;;;;;;;;;;22.30;48.40;;;;;;1539569;75;718;-54
2023/09/05 04:56:40;;;;;;;;;;;22.40;48.60;;;;;;1549978;75;712;-55
2023/09/05 04:58:43;;;;;;;;;;;22.40;48.60;;;;;;1546769;75;713;-55
2023/09/05 05:00:47;;;;;;;;;;;22.40;48.50;;;;;;1543371;75;1975;-55
2023/09/05 05:02:48;;;;;;;;;;;22.40;48.50;;;;;;1540048;75;1388;-56
2023/09/05 05:04:50;;;;;;;;;;;22.40;48.50;;;;;;1551518;75;742;-55
2023/09/05 05:06:52;;;;;;;;;;;22.50;48.70;;;;;;1543960;75;673;-56
2023/09/05 05:08:54;;;;;;;;;;;22.40;48.70;;;;;;1492208;78;637;-55
2023/09/05 05:10:56;;;;;;;;;;;22.50;48.80;;;;;;1510198;77;1175;-55
2023/09/05 05:12:58;;;;;;;;;;;22.50;48.80;;;;;;1510643;77;793;-55
2023/09/05 05:15:00;;;;;;;;;;;22.50;48.80;;;;;;1507819;78;1362;-55
2023/09/05 05:17:02;;;;;;;;;;;22.40;48.70;;;;;;1510130;77;688;-54
2023/09/05 05:19:04;;;;;;;;;;;22.50;48.90;;;;;;1502852;77;719;-56
2023/09/05 05:21:06;;;;;;;;;;;22.40;48.80;;;;;;1510716;77;1927;-56
2023/09/05 05:23:07;;;;;;;;;;;22.50;48.90;;;;;;1508553;77;779;-54
2023/09/05 05:25:09;;;;;;;;;;;22.50;48.90;;;;;;1517169;77;702;-54
2023/09/05 05:27:11;;;;;;;;;;;22.50;48.80;;;;;;1515762;77;638;-55
2023/09/05 05:29:13;;;;;;;;;;;22.60;48.90;;;;;;1513981;77;1400;-54
2023/09/05 05:31:15;;;;;;;;;;;22.60;48.60;;;;;;1512890;78;1195;-54
2023/09/05 05:33:17;;;;;;;;;;;22.60;48.60;;;;;;1513462;78;796;-55
2023/09/05 05:35:19;;;;;;;;;;;22.60;48.50;;;;;;1521087;77;786;-55
2023/09/05 05:37:21;;;;;;;;;;;22.70;48.60;;;;;;1514229;77;727;-54
2023/09/05 05:39:25;;;;;;;;;;;22.70;48.60;;;;;;1504638;77;658;-54
2023/09/05 05:41:27;;;;;;;;;;;22.70;48.50;;;;;;1508641;78;1958;-55
2023/09/05 05:43:29;;;;;;;;;;;22.60;48.40;;;;;;1512255;78;1568;-54
2023/09/05 05:45:31;;;;;;;;;;;22.70;48.50;;;;;;1505318;78;717;-54
2023/09/05 05:47:33;;;;;;;;;;;22.60;48.50;;;;;;1508569;78;630;-56
2023/09/05 05:49:34;;;;;;;;;;;22.70;48.50;;;;;;1515616;77;1155;-54
2023/09/05 05:51:37;;;;;;;;;;;22.70;48.50;;;;;;1515164;78;684;-55
2023/09/05 05:53:39;;;;;;;;;;;22.70;48.40;;;;;;1504889;78;738;-54
2023/09/05 05:55:41;;;;;;;;;;;22.70;48.30;;;;;;1513539;78;688;-54
2023/09/05 05:57:43;;;;;;;;;;;22.80;48.20;;;;;;1506294;78;1406;-54
2023/09/05 05:59:45;;;;;;;;;;;22.80;48.20;;;;;;1509377;77;1247;-54
2023/09/05 06:01:46;;;;;;;;;;;22.90;48.30;;;;;;1507219;78;1945;-57
2023/09/05 06:03:48;;;;;;;;;;;22.90;48.30;;;;;;1514201;78;728;-54
2023/09/05 06:05:58;;;;;;;;;;;22.90;48.30;;;;;;1513945;78;646;-55
2023/09/05 06:07:57;;;;;;;;;;;22.90;48.20;;;;;;1512646;78;1622;-54
2023/09/05 06:09:58;;;;;;;;;;;22.90;48.20;;;;;;1510584;77;1452;-54
2023/09/05 06:12:00;;;;;;;;;;;22.90;48.20;;;;;;1515022;78;620;-54
2023/09/05 06:14:02;;;;;;;;;;;22.90;48.20;;;;;;1514566;78;736;-54
2023/09/05 06:16:04;;;;;;;;;;;23.00;48.30;;;;;;1511311;78;710;-54
2023/09/05 06:18:07;;;;;;;;;;;22.90;48.30;;;;;;1510242;78;631;-54
2023/09/05 06:20:09;;;;;;;;;;;22.90;48.30;;;;;;1515485;78;1933;-55
2023/09/05 06:22:11;;;;;;;;;;;22.80;48.30;;;;;;1510644;78;684;-54
2023/09/05 06:24:13;;;;;;;;;;;22.90;48.40;;;;;;1514800;78;1442;-54
2023/09/05 06:26:16;;;;;;;;;;;22.90;48.50;;;;;;1514187;78;745;-54
2023/09/05 06:28:17;;;;;;;;;;;22.80;48.40;;;;;;1507896;78;754;-54
2023/09/05 06:30:20;;;;;;;;;;;22.80;48.50;;;;;;1512047;77;1170;-54
2023/09/05 06:32:21;;;;;;;;;;;22.80;48.50;;;;;;1508447;78;726;-56
2023/09/05 06:34:23;;;;;;;;;;;22.80;48.50;;;;;;1514611;78;689;-54
2023/09/05 06:36:25;;;;;;;;;;;22.70;48.60;;;;;;1509654;78;736;-54
2023/09/05 06:38:27;;;;;;;;;;;22.80;48.60;;;;;;1513039;78;1433;-53
2023/09/05 06:40:30;;;;;;;;;;;22.80;48.70;;;;;;1506208;78;1954;-54
2023/09/05 06:42:32;;;;;;;;;;;22.80;48.70;;;;;;1495362;78;639;-54
2023/09/05 06:44:34;;;;;;;;;;;22.80;48.60;;;;;;1485348;78;726;-54
2023/09/05 06:46:36;;;;;;;;;;;23.00;48.40;;;;;;1490873;78;703;-54
2023/09/05 06:48:38;;;;;;;;;;;23.40;47.90;;;;;;1505076;78;743;-54
2023/09/05 06:50:40;;;;;;;;;;;23.80;47.20;;;;;;1511910;78;1171;-54
2023/09/05 06:52:42;;;;;;;;;;;24.10;46.40;;;;;;1507722;77;1460;-55
2023/09/05 06:54:44;;;;;;;;;;;25.40;43.60;;;;;;1514175;78;685;-54
2023/09/05 06:56:46;;;;;;;;;;;28.20;38.60;;;;;;1502041;78;765;-54
2023/09/05 06:58:47;;;;;;;;;;;30.60;34.10;;;;;;1510448;78;678;-56
2023/09/05 07:00:53;;;;;;;;;;;32.10;30.80;;;;;;1511080;77;1945;-56
2023/09/05 07:02:53;;;;;;;;;;;33.10;28.90;;;;;;1515454;78;1079;-57
2023/09/05 07:04:55;;;;;;;;;;;33.90;26.60;;;;;;1514528;78;673;-56
2023/09/05 07:06:57;;;;;;;;;;;33.90;26.20;;;;;;1515009;78;1394;-56
2023/09/05 07:08:59;;;;;;;;;;;31.80;28.00;;;;;;1516114;78;695;-55
2023/09/05 07:11:00;;;;;;;;;;;29.50;31.50;;;;;;1509104;78;1172;-56
2023/09/05 07:13:02;;;;;;;;;;;28.00;34.70;;;;;;1504859;78;703;-56
2023/09/05 07:15:04;;;;;;;;;;;26.90;36.30;;;;;;1515149;78;720;-56
2023/09/05 07:17:07;;;;;;;;;;;26.20;38.40;;;;;;1515856;78;676;-56
2023/09/05 07:19:09;;;;;;;;;;;25.60;39.60;;;;;;1516985;78;769;-56
2023/09/05 07:21:11;;;;;;;;;;;25.20;40.90;;;;;;1515176;78;1945;-56
2023/09/05 07:23:12;;;;;;;;;;;24.90;41.90;;;;;;1510333;78;736;-55
2023/09/05 07:25:14;;;;;;;;;;;24.70;42.70;;;;;;1499631;78;681;-56
2023/09/05 07:27:16;;;;;;;;;;;24.60;43.20;;;;;;1516751;78;677;-56
2023/09/05 07:29:18;;;;;;;;;;;24.40;43.70;;;;;;1511611;78;738;-55
2023/09/05 07:31:22;;;;;;;;;;;24.30;44.20;;;;;;1505272;78;1147;-55
2023/09/05 07:33:23;;;;;;;;;;;24.30;44.60;;;;;;1494146;78;680;-55
2023/09/05 07:35:25;;;;;;;;;;;24.10;44.80;;;;;;1510739;78;1447;-55
2023/09/05 07:37:27;;;;;;;;;;;24.00;45.00;;;;;;1513335;78;723;-55
2023/09/05 07:39:29;;;;;;;;;;;24.00;45.30;;;;;;1511471;78;1156;-55
2023/09/05 07:41:31;;;;;;;;;;;23.90;45.60;;;;;;1511294;78;1925;-56
2023/09/05 07:43:33;;;;;;;;;;;23.90;45.80;;;;;;1512331;78;706;-56
2023/09/05 07:45:35;;;;;;;;;;;23.90;46.00;;;;;;1510444;78;729;-54
2023/09/05 07:47:37;;;;;;;;;;;23.80;46.00;;;;;;1512794;78;662;-55
2023/09/05 07:49:40;;;;;;;;;;;23.80;46.20;;;;;;1499305;78;1349;-55
2023/09/05 07:51:42;;;;;;;;;;;23.70;46.40;;;;;;1508408;78;727;-56
2023/09/05 07:53:51;;;;;;;;;;;23.70;46.50;;;;;;1514408;78;727;-55
2023/09/05 07:55:52;;;;;;;;;;;23.80;46.60;;;;;;1508278;78;732;-56
2023/09/05 07:57:55;;;;;;;;;;;23.80;46.70;;;;;;1507926;78;644;-56
2023/09/05 07:59:57;;;;;;;;;;;23.70;46.80;;;;;;1515360;78;1242;-56
2023/09/05 08:02:00;;;;;;;;;;;23.70;46.80;;;;;;1512601;78;1945;-56
2023/09/05 08:04:02;;;;;;;;;;;23.70;46.80;;;;;;1510816;78;1336;-55
2023/09/05 08:06:04;;;;;;;;;;;23.70;47.00;;;;;;1512266;78;638;-56
2023/09/05 08:08:06;;;;;;;;;;;23.70;47.00;;;;;;1512120;78;688;-56
2023/09/05 08:10:08;;;;;;;;;;;23.70;47.10;;;;;;1506835;78;1193;-56
2023/09/05 08:12:10;;;;;;;;;;;23.70;47.10;;;;;;1513672;78;779;-56
2023/09/05 08:14:11;;;;;;;;;;;23.70;47.10;;;;;;1512999;78;743;-56
2023/09/05 08:16:13;;;;;;;;;;;23.70;47.20;;;;;;1512845;78;668;-56
2023/09/05 08:18:15;;;;;;;;;;;23.70;47.20;;;;;;1515777;77;1480;-56
2023/09/05 08:20:17;;;;;;;;;;;23.70;47.20;;;;;;1514541;78;1235;-56
2023/09/05 08:22:19;;;;;;;;;;;23.70;47.30;;;;;;1504265;78;1944;-56
2023/09/05 08:24:21;;;;;;;;;;;23.70;47.30;;;;;;1506821;78;803;-57
2023/09/05 08:26:23;;;;;;;;;;;23.70;47.30;;;;;;1514720;78;914;-55
2023/09/05 08:28:26;;;;;;;;;;;23.70;47.50;;;;;;1507976;78;688;-56
2023/09/05 08:30:28;;;;;;;;;;;23.70;47.40;;;;;;1511615;78;1192;-55
2023/09/05 08:32:31;;;;;;;;;;;23.70;47.40;;;;;;1518611;78;1472;-56
2023/09/05 08:34:33;;;;;;;;;;;23.70;47.50;;;;;;1513356;78;779;-56
2023/09/05 08:36:35;;;;;;;;;;;23.70;47.50;;;;;;1507580;78;675;-56
2023/09/05 08:38:39;;;;;;;;;;;23.70;47.50;;;;;;1514717;78;641;-55
2023/09/05 08:40:43;;;;;;;;;;;23.60;47.50;;;;;;1514224;78;1190;-56
2023/09/05 08:42:47;;;;;;;;;;;23.70;47.60;;;;;;1513930;78;1941;-56
2023/09/05 08:44:48;;;;;;;;;;;23.60;47.50;;;;;;1497253;78;1643;-56
2023/09/05 08:46:50;;;;;;;;;;;23.60;47.50;;;;;;1505828;78;684;-56
2023/09/05 08:48:52;;;;;;;;;;;23.60;47.50;;;;;;1518964;78;776;-56
2023/09/05 08:50:55;;;;;;;;;;;23.60;47.60;;;;;;1507585;78;1172;-55
2023/09/05 08:52:57;;;;;;;;;;;23.60;47.60;;;;;;1499773;78;700;-56
2023/09/05 08:54:59;;;;;;;;;;;23.60;47.60;;;;;;1508561;78;697;-55
2023/09/05 08:57:03;;;;;;;;;;;23.70;47.70;;;;;;1513787;78;747;-56
2023/09/05 08:59:04;;;;;;;;;;;23.70;47.70;;;;;;1513903;77;1593;-56
2023/09/05 09:01:06;;;;;;;;;;;23.70;47.80;;;;;;1520157;77;1960;-55
2023/09/05 09:03:08;;;;;;;;;;;23.60;47.60;;;;;;1508965;78;697;-55
2023/09/05 09:05:10;;;;;;;;;;;23.70;47.80;;;;;;1514763;78;740;-55
2023/09/05 09:07:12;;;;;;;;;;;23.70;47.80;;;;;;1503008;78;748;-55
2023/09/05 09:09:36;;;;;;;;;;;23.60;47.70;;;;;;1515447;78;707;-56
2023/09/05 09:11:38;;;;;;;;;;;23.70;47.80;;;;;;1509500;78;695;-56
2023/09/05 09:13:40;;;;;;;;;;;23.70;47.80;;;;;;1515274;78;1391;-56
2023/09/05 09:15:43;;;;;;;;;;;23.70;47.80;;;;;;1501204;77;759;-55
2023/09/05 09:17:48;;;;;;;;;;;23.70;47.90;;;;;;1505325;78;696;-56
2023/09/05 09:19:51;;;;;;;;;;;23.70;47.90;;;;;;1513782;78;1253;-55
2023/09/05 09:21:53;;;;;;;;;;;23.70;47.90;;;;;;1500220;78;1954;-56
2023/09/05 09:23:57;;;;;;;;;;;23.70;48.00;;;;;;1508801;78;692;-55
2023/09/05 09:25:59;;;;;;;;;;;23.70;48.10;;;;;;1516035;78;1289;-55
2023/09/05 09:28:00;;;;;;;;;;;23.60;48.00;;;;;;1510257;78;1440;-56
2023/09/05 09:30:03;;;;;;;;;;;23.60;48.00;;;;;;1518704;77;1198;-56
2023/09/05 09:32:05;;;;;;;;;;;23.60;48.00;;;;;;1480715;79;1251;-56
2023/09/05 09:34:08;;;;;;;;;;;23.70;48.20;;;;;;1505610;78;654;-55
2023/09/05 09:36:10;;;;;;;;;;;23.70;48.20;;;;;;1524165;78;708;-56
2023/09/05 09:38:12;;;;;;;;;;;23.60;48.10;;;;;;1522187;78;762;-55
2023/09/05 09:40:19;;;;;;;;;;;23.60;48.10;;;;;;1516276;78;1143;-56
2023/09/05 09:42:24;;;;;;;;;;;23.60;48.10;;;;;;1517648;77;1940;-55
2023/09/05 09:44:29;;;;;;;;;;;23.60;48.20;;;;;;1524056;78;641;-56
2023/09/05 09:46:31;;;;;;;;;;;23.60;48.20;;;;;;1522054;78;705;-55
2023/09/05 09:48:35;;;;;;;;;;;23.60;48.20;;;;;;1525200;78;692;-56
2023/09/05 09:50:36;;;;;;;;;;;23.60;48.30;;;;;;1514038;78;1160;-56
2023/09/05 09:52:39;;;;;;;;;;;23.60;48.30;;;;;;1518105;78;735;-57
2023/09/05 09:54:41;;;;;;;;;;;23.60;48.40;;;;;;1521179;78;627;-57
2023/09/05 09:56:43;;;;;;;;;;;23.60;48.40;;;;;;1517452;78;1418;-56
2023/09/05 09:58:45;;;;;;;;;;;23.60;48.40;;;;;;1499156;78;709;-55
2023/09/05 10:00:48;;;;;;;;;;;23.60;48.40;;;;;;1485929;78;1230;-57
2023/09/05 10:02:49;;;;;;;;;;;23.60;48.50;;;;;;1508828;77;1939;-56
2023/09/05 10:04:53;;;;;;;;;;;23.60;48.40;;;;;;1506738;77;774;-55
2023/09/05 10:06:56;;;;;;;;;;;23.60;48.50;;;;;;1518211;77;755;-55
2023/09/05 10:08:57;;;;;;;;;;;23.60;48.50;;;;;;1518012;77;685;-55
2023/09/05 10:10:59;;;;;;;;;;;23.60;48.50;;;;;;1507307;78;1685;-57
2023/09/05 10:13:01;;;;;;;;;;;23.60;48.50;;;;;;1512640;78;785;-55
2023/09/05 10:15:03;;;;;;;;;;;23.60;48.60;;;;;;1505987;78;780;-57
2023/09/05 10:17:05;;;;;;;;;;;23.60;48.60;;;;;;1504503;78;656;-55
2023/09/05 10:19:07;;;;;;;;;;;23.60;48.60;;;;;;1508651;78;705;-55
2023/09/05 10:21:09;;;;;;;;;;;23.50;48.70;;;;;;1508182;78;1148;-55
2023/09/05 10:23:11;;;;;;;;;;;23.60;48.70;;;;;;1509322;77;1927;-54
2023/09/05 10:25:14;;;;;;;;;;;23.60;48.80;;;;;;1512851;78;758;-55
2023/09/05 10:27:16;;;;;;;;;;;23.60;48.80;;;;;;1516896;78;634;-55
2023/09/05 10:29:38;;;;;;;;;;;23.60;48.80;;;;;;1517562;78;710;-56
2023/09/05 10:31:40;;;;;;;;;;;23.50;48.80;;;;;;1436453;81;1045;-54
2023/09/05 10:33:45;;;;;;;;;;;23.60;48.90;;;;;;1442085;81;835;-54
2023/09/05 10:35:47;;;;;;;;;;;23.60;48.90;;;;;;1438465;81;710;-54
2023/09/05 10:37:52;;;;;;;;;;;23.60;48.90;;;;;;1493919;78;1440;-54
2023/09/05 10:39:55;;;;;;;;;;;23.50;48.90;;;;;;1510789;78;1190;-55
2023/09/05 10:41:57;;;;;;;;;;;23.60;48.90;;;;;;1517225;78;1936;-54
2023/09/05 10:43:59;;;;;;;;;;;23.60;48.90;;;;;;1512580;78;711;-54
2023/09/05 10:46:01;;;;;;;;;;;23.50;48.90;;;;;;1476259;79;1138;-56
2023/09/05 10:48:04;;;;;;;;;;;23.50;49.00;;;;;;1510273;78;760;-55
2023/09/05 10:50:07;;;;;;;;;;;23.50;49.00;;;;;;1513920;78;1206;-54
2023/09/05 10:52:21;;;;;;;;;;;23.60;49.00;;;;;;1510109;78;1421;-57
2023/09/05 10:54:27;;;;;;;;;;;23.60;49.00;;;;;;1496493;78;1563;-55
2023/09/05 10:56:43;;;;;;;;;;;23.60;49.10;;;;;;1504037;78;704;-56
2023/09/05 10:58:53;;;;;;;;;;;23.50;49.10;;;;;;1505827;78;735;-54
2023/09/05 11:00:50;;;;;;;;;;;23.50;49.20;;;;;;1513457;78;1481;-55
2023/09/05 11:02:53;;;;;;;;;;;23.50;49.20;;;;;;1507813;78;1948;-57
2023/09/05 11:04:55;;;;;;;;;;;23.60;49.20;;;;;;1511262;78;667;-56
2023/09/05 11:07:04;;;;;;;;;;;23.50;49.20;;;;;;1515783;77;1555;-56
2023/09/05 11:09:06;;;;;;;;;;;23.50;49.20;;;;;;1506173;78;720;-55
2023/09/05 11:11:08;;;;;;;;;;;23.60;49.20;;;;;;1516233;78;1337;-55
2023/09/05 11:13:12;;;;;;;;;;;23.50;49.20;;;;;;1513122;78;715;-54
2023/09/05 11:15:13;;;;;;;;;;;23.50;49.30;;;;;;1514265;78;744;-55
2023/09/05 11:17:16;;;;;;;;;;;23.50;49.30;;;;;;1509835;78;717;-56
2023/09/05 11:19:40;;;;;;;;;;;23.50;49.20;;;;;;1506636;78;706;-55
2023/09/05 11:21:44;;;;;;;;;;;23.50;49.30;;;;;;1506354;78;1725;-55
2023/09/05 11:23:47;;;;;;;;;;;23.50;49.30;;;;;;1506496;78;1932;-54
2023/09/05 11:25:50;;;;;;;;;;;23.50;49.30;;;;;;1508373;78;1134;-54
2023/09/05 11:27:58;;;;;;;;;;;23.50;49.30;;;;;;1515434;78;710;-55
2023/09/05 11:29:57;;;;;;;;;;;23.50;49.40;;;;;;1509527;77;1559;-54
2023/09/05 11:31:59;;;;;;;;;;;23.50;49.30;;;;;;1502891;78;674;-54
2023/09/05 11:34:01;;;;;;;;;;;23.50;49.30;;;;;;1510003;78;1424;-55
2023/09/05 11:36:05;;;;;;;;;;;23.50;49.40;;;;;;1498022;78;758;-55
2023/09/05 11:38:07;;;;;;;;;;;23.50;49.30;;;;;;1512996;78;1030;-56
2023/09/05 11:40:10;;;;;;;;;;;23.50;49.40;;;;;;1514775;77;1167;-55
2023/09/05 11:42:18;;;;;;;;;;;23.50;49.40;;;;;;1510985;78;1941;-54
2023/09/05 11:44:31;;;;;;;;;;;23.50;49.40;;;;;;1513181;78;718;-54
2023/09/05 11:46:40;;;;;;;;;;;23.50;49.40;;;;;;1503250;77;1682;-55
2023/09/05 11:48:36;;;;;;;;;;;23.50;49.40;;;;;;1513218;77;1587;-55
2023/09/05 11:50:40;;;;;;;;;;;23.50;49.40;;;;;;1507069;78;1205;-55
2023/09/05 11:52:42;;;;;;;;;;;23.50;49.40;;;;;;1512728;78;969;-55
2023/09/05 11:54:44;;;;;;;;;;;23.50;49.40;;;;;;1513236;78;746;-54
2023/09/05 11:56:46;;;;;;;;;;;23.50;49.40;;;;;;1508801;78;688;-55
2023/09/05 11:58:48;;;;;;;;;;;23.50;49.40;;;;;;1514728;78;691;-56
2023/09/05 12:00:50;;;;;;;;;;;23.50;49.40;;;;;;1509261;77;1170;-55
2023/09/05 12:02:53;;;;;;;;;;;23.50;49.40;;;;;;1507881;78;1945;-54
2023/09/05 12:04:56;;;;;;;;;;;23.50;49.40;;;;;;1502186;78;1505;-55
2023/09/05 12:06:57;;;;;;;;;;;23.50;49.50;;;;;;1511451;78;630;-55
2023/09/05 12:08:59;;;;;;;;;;;23.50;49.40;;;;;;1515284;78;688;-55
2023/09/05 12:11:03;;;;;;;;;;;23.50;49.50;;;;;;1515806;77;1243;-55
2023/09/05 12:13:04;;;;;;;;;;;23.50;49.50;;;;;;1515638;78;765;-55